Nordic — CNA5129 — position and weather

sailwx.info

Track history (hours):
 
Tides and Currents Weather Stations Pressure Air Temp Water Temp Dewpoint Dewpoint Depression Visibility Wind Speed Wind Dir Waves Ship Positions

Nordic

Last reported at 2018-Jan-05 08:52 UTC. Time now 2018-Jan-19 07:53 UTC.
Position N 24°06' W 016°08'.
Warning: this ship's position is 13 days out of date.

Length 58 m; draft 5 m.

Type: Fishing. MMSI: 242543300.

Date/timePositionNaut miles runAvg speedWind from/ knotsBaromVisibWave heightAir tempDewpointWater temp
2018-Jan-05 08:52N 24°06' W 016°08'2 3.4
2018-Jan-05 08:22N 24°04' W 016°07'16 5.8
2018-Jan-05 05:34N 24°14' W 015°52'110.5
2018-Jan-05 05:27N 24°15' W 015°51'11 8.6
2018-Jan-05 04:08N 24°24' W 015°45'19 3.6
2018-Jan-04 22:48N 24°09' W 015°58'1 4.7
2018-Jan-04 22:29N 24°08' W 015°59'7 7.9
2018-Jan-04 21:33N 24°06' W 016°07'110.4
2018-Jan-04 21:30N 24°06' W 016°08'2 3.4
2018-Jan-04 20:59N 24°08' W 016°08'3 3.9
2018-Jan-04 20:13N 24°11' W 016°08'1 0.8
2018-Jan-04 18:29N 24°10' W 016°07'2 4.0
2018-Jan-04 18:00N 24°08' W 016°09'4 5.7
2018-Jan-04 17:15N 24°04' W 016°10'910.3
2018-Jan-04 16:24N 23°56' W 016°07'9 0.6
2018-Jan-04 02:04N 23°47' W 016°05'1110.3
2018-Jan-04 01:01N 23°58' W 016°08'010.4
2018-Jan-04 00:59N 23°58' W 016°08'9 6.3
2018-Jan-03 23:36N 24°07' W 016°08'0 3.7
2018-Jan-03 23:30N 24°07' W 016°07'2 4.7
2018-Jan-03 23:00N 24°09' W 016°06'1 1.3
2018-Jan-03 22:04N 24°09' W 016°07'1 0.2
2018-Jan-03 19:00N 24°09' W 016°07'7 9.6
2018-Jan-03 18:17N 24°10' W 015°60'6 1.4
2018-Jan-03 14:10N 24°08' W 016°06'0 0.7
2018-Jan-03 13:59N 24°08' W 016°06'4 3.3
2018-Jan-03 12:55N 24°05' W 016°04'38 3.2
2018-Jan-03 01:01N 24°35' W 015°37'0 4.8
2018-Jan-03 00:55N 24°34' W 015°37'9 2.0
2018-Jan-02 20:39N 24°43' W 015°38'6 9.5
2018-Jan-02 20:03N 24°47' W 015°34'110.6
2018-Jan-02 19:59N 24°47' W 015°33'1110.5
2018-Jan-02 18:55N 24°58' W 015°31'410.4
2018-Jan-02 18:30N 25°02' W 015°30'610.4
2018-Jan-02 17:56N 25°08' W 015°28'12 5.6
2018-Jan-02 15:49N 25°19' W 015°22'2 4.4
2018-Jan-02 15:27N 25°20' W 015°21'2 4.8
2018-Jan-02 15:00N 25°22' W 015°20'3 4.8
2018-Jan-02 14:29N 25°23' W 015°18'2 4.7
2018-Jan-02 14:00N 25°25' W 015°16'2 3.8
2018-Jan-02 13:30N 25°27' W 015°15'2 3.9
2018-Jan-02 13:00N 25°25' W 015°16'2 4.0
2018-Jan-02 12:30N 25°24' W 015°18'2 4.5
2018-Jan-02 12:00N 25°22' W 015°20'11 9.1
2018-Jan-02 10:47N 25°32' W 015°15'412.2
2018-Jan-02 10:28N 25°36' W 015°12'612.3
2018-Jan-02 09:57N 25°41' W 015°09'811.9
2018-Jan-02 09:19N 25°48' W 015°05'1112.1
2018-Jan-02 08:23N 25°55' W 014°55'3 6.9
2018-Jan-02 08:00N 25°58' W 014°55'5 9.8
2018-Jan-02 07:28N 25°53' W 014°58'4 9.8
2018-Jan-02 07:00N 25°49' W 015°01'5 9.4
2018-Jan-02 06:29N 25°45' W 015°01'4 8.2
2018-Jan-02 06:00N 25°41' W 015°02'6 9.6
2018-Jan-02 05:21N 25°35' W 015°03'910.2
2018-Jan-02 04:30N 25°27' W 015°08'510.1
2018-Jan-02 04:00N 25°22' W 015°10'  
Track history (hours):
 
Tides and Currents Weather Stations Pressure Air Temp Water Temp Dewpoint Dewpoint Depression Visibility Wind Speed Wind Dir Waves Ship Positions

Nordic

Last reported at 2018-Jan-05 08:52 UTC. Time now 2018-Jan-19 07:53 UTC.
Position N 24°06' W 016°08'.
Warning: this ship's position is 13 days out of date.

Length 58 m; draft 5 m.

Type: Fishing. MMSI: 242543300.

Date/timePositionNaut miles runAvg speedWind from/ knotsBaromVisibWave heightAir tempDewpointWater temp
2018-Jan-05 08:52N 24°06' W 016°08'2 3.4
2018-Jan-05 08:22N 24°04' W 016°07'16 5.8
2018-Jan-05 05:34N 24°14' W 015°52'110.5
2018-Jan-05 05:27N 24°15' W 015°51'11 8.6
2018-Jan-05 04:08N 24°24' W 015°45'19 3.6
2018-Jan-04 22:48N 24°09' W 015°58'1 4.7
2018-Jan-04 22:29N 24°08' W 015°59'7 7.9
2018-Jan-04 21:33N 24°06' W 016°07'110.4
2018-Jan-04 21:30N 24°06' W 016°08'2 3.4
2018-Jan-04 20:59N 24°08' W 016°08'3 3.9
2018-Jan-04 20:13N 24°11' W 016°08'1 0.8
2018-Jan-04 18:29N 24°10' W 016°07'2 4.0
2018-Jan-04 18:00N 24°08' W 016°09'4 5.7
2018-Jan-04 17:15N 24°04' W 016°10'910.3
2018-Jan-04 16:24N 23°56' W 016°07'9 0.6
2018-Jan-04 02:04N 23°47' W 016°05'1110.3
2018-Jan-04 01:01N 23°58' W 016°08'010.4
2018-Jan-04 00:59N 23°58' W 016°08'9 6.3
2018-Jan-03 23:36N 24°07' W 016°08'0 3.7
2018-Jan-03 23:30N 24°07' W 016°07'2 4.7
2018-Jan-03 23:00N 24°09' W 016°06'1 1.3
2018-Jan-03 22:04N 24°09' W 016°07'1 0.2
2018-Jan-03 19:00N 24°09' W 016°07'7 9.6
2018-Jan-03 18:17N 24°10' W 015°60'6 1.4
2018-Jan-03 14:10N 24°08' W 016°06'0 0.7
2018-Jan-03 13:59N 24°08' W 016°06'4 3.3
2018-Jan-03 12:55N 24°05' W 016°04'38 3.2
2018-Jan-03 01:01N 24°35' W 015°37'0 4.8
2018-Jan-03 00:55N 24°34' W 015°37'9 2.0
2018-Jan-02 20:39N 24°43' W 015°38'6 9.5
2018-Jan-02 20:03N 24°47' W 015°34'110.6
2018-Jan-02 19:59N 24°47' W 015°33'1110.5
2018-Jan-02 18:55N 24°58' W 015°31'410.4
2018-Jan-02 18:30N 25°02' W 015°30'610.4
2018-Jan-02 17:56N 25°08' W 015°28'12 5.6
2018-Jan-02 15:49N 25°19' W 015°22'2 4.4
2018-Jan-02 15:27N 25°20' W 015°21'2 4.8
2018-Jan-02 15:00N 25°22' W 015°20'3 4.8
2018-Jan-02 14:29N 25°23' W 015°18'2 4.7
2018-Jan-02 14:00N 25°25' W 015°16'2 3.8
2018-Jan-02 13:30N 25°27' W 015°15'2 3.9
2018-Jan-02 13:00N 25°25' W 015°16'2 4.0
2018-Jan-02 12:30N 25°24' W 015°18'2 4.5
2018-Jan-02 12:00N 25°22' W 015°20'11 9.1
2018-Jan-02 10:47N 25°32' W 015°15'412.2
2018-Jan-02 10:28N 25°36' W 015°12'612.3
2018-Jan-02 09:57N 25°41' W 015°09'811.9
2018-Jan-02 09:19N 25°48' W 015°05'1112.1
2018-Jan-02 08:23N 25°55' W 014°55'3 6.9
2018-Jan-02 08:00N 25°58' W 014°55'5 9.8
2018-Jan-02 07:28N 25°53' W 014°58'4 9.8
2018-Jan-02 07:00N 25°49' W 015°01'5 9.4
2018-Jan-02 06:29N 25°45' W 015°01'4 8.2
2018-Jan-02 06:00N 25°41' W 015°02'6 9.6
2018-Jan-02 05:21N 25°35' W 015°03'910.2
2018-Jan-02 04:30N 25°27' W 015°08'510.1
2018-Jan-02 04:00N 25°22' W 015°10'  

Dump ship's entire track history